SBJRSBCB

Guest
Details From SBJR - Jacarepagua
To SBCB - CABO FRIO
Flight Number -
Tags generated
Created
Modified
Stats Distance 72 nm / 133 km
Max Altitude 9,400 ft / 2,865 m
Waypoints 3
Social Downloads 0
Likes 0
Share VATSIM

Download

Looking for another format? Having issues loading an existing format? Contact us
Advertisement - Login to hide

Notes

Basic altitude profile: - Ascent Rate: 2500ft/min - Ascent Speed: 250kts - Cruise Altitude: 35000ft - Cruise Speed: 420kts - Descent Rate: 1500ft/min - Descent Speed: 250kts Options: - Use NATs: yes - Use PACOTS: yes - Use low airways: yes - Use high airways: yes

Route

SBJR MRC SBCB

ID Type Via Altitude Latitude Longitude Leg Dist Tot Dist Heading (true) Name
O SBJR APT - 0 ft / 0 m -22.98778˚ -43.37028˚ - 0 nm - Jacarepagua
MRC VOR - 9,400 ft / 2,865 m -22.96769˚ -42.89131˚ 26 nm 26 nm 87° / 87° MARICA VOR-DME
O SBCB APT - 0 ft / 0 m -22.92168˚ -42.07427˚ 45 nm 71 nm 87° / 86° CABO FRIO

Altitude Profile

Advertisement - Login to hide

SBJR

Details ICAO SBJR
Name Jacarepagua
Region Brazil
Timezone America/Sao_Paulo (UTC-2.0)
Stats Elevation 10 ft / 3 m (AMSL)
Location -22.987778° -43.370277°
Runways 1
Magnetic Variation 22.701° W

METAR

SBJR 141500Z 14006KT 9999 FEW030 30/19 Q1016

Decode

TAF

Not found

Departure Runways

ID Width Length Bearing (true) Bearing (mag) Surface Threshold Offset Overrun Length
02 42 ft / 13 m 2,955 ft / 901 m 359.00° 21.70° Concrete 0 ft / 0 m 0 ft / 0 m
20 42 ft / 13 m 2,955 ft / 901 m 179.00° 201.70° Concrete 0 ft / 0 m 0 ft / 0 m

SBCB

Details ICAO SBCB (CFB)
Name CABO FRIO
Region Brazil
Timezone America/Sao_Paulo (UTC-2.0)
Stats Elevation 14 ft / 4 m (AMSL)
Location -22.921681° -42.074268°
Runways 1
Magnetic Variation 23.135° W

METAR

SBCB 141500Z 09014KT 9999 FEW025 30/20 Q1017

Decode

TAF

Not found

Destination Runways

ID Width Length Bearing (true) Bearing (mag) Surface Threshold Offset Overrun Length
10 98 ft / 30 m 5,574 ft / 1,699 m 75.53° 98.66° Asphalt 0 ft / 0 m 200 ft / 61 m
28 98 ft / 30 m 5,574 ft / 1,699 m 255.53° 278.66° Asphalt 0 ft / 0 m 200 ft / 61 m

Popular Alternatives